Time;durP1;ratioP1;P1;durP2;ratioP2;P2;SDS_P1;SDS_P2;PMS_P1;PMS_P2;Temp;Humidity;BMP_temperature;BMP_pressure;BME280_temperature;BME280_humidity;BME280_pressure;Samples;Min_cycle;Max_cycle;Signal;HPM_P1;HPM_P2
2023/03/06 00:00:22;;;;;;;1.90;1.40;;;;;;;;;;4941891;28;20226;-87
2023/03/06 00:02:47;;;;;;;2.90;1.60;;;;;;;;;;4952387;28;20387;-88
2023/03/06 00:05:15;;;;;;;2.03;1.53;;;;;;;;;;4940414;28;20258;-83
2023/03/06 00:07:41;;;;;;;2.67;1.60;;;;;;;;;;4932580;28;20662;-87
2023/03/06 00:10:09;;;;;;;3.70;1.87;;;;;;;;;;4938865;28;20234;-86
2023/03/06 00:12:35;;;;;;;3.93;2.00;;;;;;;;;;4940604;28;20229;-85
2023/03/06 00:15:00;;;;;;;2.17;1.97;;;;;;;;;;4967562;28;20226;-88
2023/03/06 00:17:27;;;;;;;2.20;2.00;;;;;;;;;;4958053;28;20339;-87
2023/03/06 00:19:52;;;;;;;3.17;1.97;;;;;;;;;;4940230;28;20708;-88
2023/03/06 00:22:18;;;;;;;2.27;2.07;;;;;;;;;;4969096;28;20233;-87
2023/03/06 00:24:43;;;;;;;2.10;1.90;;;;;;;;;;4952370;28;20229;-86
2023/03/06 00:27:09;;;;;;;2.30;1.97;;;;;;;;;;4938013;28;20268;-88
2023/03/06 00:29:34;;;;;;;1.80;1.70;;;;;;;;;;4940548;28;20218;-88
2023/03/06 00:32:00;;;;;;;1.53;1.43;;;;;;;;;;4935267;28;20633;-87
2023/03/06 00:34:25;;;;;;;2.07;1.40;;;;;;;;;;4942006;28;20238;-87
2023/03/06 00:36:51;;;;;;;1.57;1.47;;;;;;;;;;4952512;28;20736;-86
2023/03/06 00:39:17;;;;;;;3.83;1.30;;;;;;;;;;4940360;28;20232;-86
2023/03/06 00:41:44;;;;;;;1.43;1.33;;;;;;;;;;4931867;28;20273;-86
2023/03/06 00:44:13;;;;;;;1.50;1.40;;;;;;;;;;4937634;28;20230;-86
2023/03/06 00:46:38;;;;;;;1.57;1.47;;;;;;;;;;4937848;28;20306;-88
2023/03/06 00:49:04;;;;;;;1.10;1.10;;;;;;;;;;4938426;28;20223;-87
2023/03/06 00:51:30;;;;;;;1.20;1.20;;;;;;;;;;4934969;28;20236;-87
2023/03/06 00:53:55;;;;;;;1.60;1.50;;;;;;;;;;4939635;28;20571;-88
2023/03/06 00:56:21;;;;;;;1.40;1.30;;;;;;;;;;4919685;28;20233;-86
2023/03/06 00:58:48;;;;;;;1.60;1.50;;;;;;;;;;4937479;28;20233;-85
2023/03/06 01:01:17;;;;;;;1.50;1.40;;;;;;;;;;4960547;28;20240;-87
2023/03/06 01:03:45;;;;;;;1.50;1.40;;;;;;;;;;4937847;28;20226;-87
2023/03/06 01:06:12;;;;;;;1.50;1.40;;;;;;;;;;4933770;28;20483;-87
2023/03/06 01:08:37;;;;;;;1.13;1.13;;;;;;;;;;4935285;28;20219;-89
2023/03/06 01:11:06;;;;;;;2.50;1.30;;;;;;;;;;4916073;28;20230;-86
2023/03/06 01:13:34;;;;;;;1.40;1.30;;;;;;;;;;4920980;28;20613;-86
2023/03/06 01:16:10;;;;;;;1.50;1.40;;;;;;;;;;4938954;28;20214;-85
2023/03/06 01:18:36;;;;;;;1.70;1.60;;;;;;;;;;4946338;28;20229;-84
2023/03/06 01:21:02;;;;;;;1.50;1.40;;;;;;;;;;4938921;28;20262;-83
2023/03/06 01:23:27;;;;;;;2.03;1.93;;;;;;;;;;4938698;28;20586;-83
2023/03/06 01:25:54;;;;;;;1.73;1.63;;;;;;;;;;4932427;28;20314;-83
2023/03/06 01:28:19;;;;;;;2.10;2.00;;;;;;;;;;4948162;28;20215;-83
2023/03/06 01:30:45;;;;;;;2.03;1.93;;;;;;;;;;4937707;28;20272;-84
2023/03/06 01:33:10;;;;;;;1.97;1.87;;;;;;;;;;4920218;28;20218;-83
2023/03/06 01:35:38;;;;;;;2.30;2.20;;;;;;;;;;4951249;28;20245;-84
2023/03/06 01:38:09;;;;;;;2.10;2.00;;;;;;;;;;4917119;28;20230;-84
2023/03/06 01:40:35;;;;;;;2.50;2.30;;;;;;;;;;4937792;28;20272;-83
2023/03/06 01:43:10;;;;;;;2.17;2.07;;;;;;;;;;4920520;28;20217;-83
2023/03/06 01:45:35;;;;;;;1.90;1.80;;;;;;;;;;4933740;28;20221;-83
2023/03/06 01:48:01;;;;;;;2.70;2.50;;;;;;;;;;4965389;28;20222;-82
2023/03/06 01:50:29;;;;;;;2.20;2.10;;;;;;;;;;4933610;28;20230;-83
2023/03/06 01:52:56;;;;;;;2.30;2.20;;;;;;;;;;4929024;28;20710;-82
2023/03/06 01:55:28;;;;;;;3.07;2.17;;;;;;;;;;4954878;28;20722;-83
2023/03/06 01:57:57;;;;;;;2.10;2.00;;;;;;;;;;4928911;28;20221;-83
2023/03/06 02:00:26;;;;;;;2.03;1.93;;;;;;;;;;4947288;28;20219;-84
2023/03/06 02:03:06;;;;;;;1.90;1.80;;;;;;;;;;4952156;28;20215;-84
2023/03/06 02:05:31;;;;;;;2.40;1.93;;;;;;;;;;4950086;28;20215;-84
2023/03/06 02:07:59;;;;;;;3.37;1.60;;;;;;;;;;4950706;28;20265;-84
2023/03/06 02:10:25;;;;;;;1.87;1.77;;;;;;;;;;4932577;28;20253;-80
2023/03/06 02:12:51;;;;;;;1.80;1.70;;;;;;;;;;4936075;28;20573;-81
2023/03/06 02:15:18;;;;;;;2.13;1.33;;;;;;;;;;4936867;28;20234;-81
2023/03/06 02:17:46;;;;;;;1.47;1.37;;;;;;;;;;4928209;28;20302;-80
2023/03/06 02:20:28;;;;;;;1.43;1.33;;;;;;;;;;4937257;28;20330;-83
2023/03/06 02:23:06;;;;;;;1.30;1.20;;;;;;;;;;4943485;28;20277;-82
2023/03/06 02:25:42;;;;;;;2.70;1.33;;;;;;;;;;4948883;28;20234;-82
2023/03/06 02:28:10;;;;;;;1.70;1.60;;;;;;;;;;4960994;28;20715;-84
2023/03/06 02:30:39;;;;;;;1.40;1.30;;;;;;;;;;4928815;28;20234;-84
2023/03/06 02:33:07;;;;;;;1.60;1.50;;;;;;;;;;4953611;28;20256;-85
2023/03/06 02:35:34;;;;;;;1.50;1.40;;;;;;;;;;4944074;28;20234;-85
2023/03/06 02:38:07;;;;;;;2.23;1.63;;;;;;;;;;4959808;28;20229;-83
2023/03/06 02:40:33;;;;;;;2.87;1.50;;;;;;;;;;4938541;28;20234;-85
2023/03/06 02:43:01;;;;;;;1.40;1.30;;;;;;;;;;4950404;28;20226;-82
2023/03/06 02:45:43;;;;;;;1.50;1.40;;;;;;;;;;4940930;28;20281;-84
2023/03/06 02:48:10;;;;;;;1.30;1.20;;;;;;;;;;4960742;28;20222;-85
2023/03/06 02:50:36;;;;;;;5.67;1.23;;;;;;;;;;4950669;28;20691;-84
2023/03/06 02:53:04;;;;;;;1.30;1.20;;;;;;;;;;4949852;28;20233;-84
2023/03/06 02:55:30;;;;;;;1.20;1.10;;;;;;;;;;4944796;28;20229;-84
2023/03/06 02:57:56;;;;;;;1.20;1.20;;;;;;;;;;4950839;28;20245;-86
2023/03/06 03:00:22;;;;;;;0.90;0.90;;;;;;;;;;4957255;28;21763;-84
2023/03/06 03:02:50;;;;;;;1.00;1.00;;;;;;;;;;4962034;28;20206;-85
2023/03/06 03:05:18;;;;;;;1.17;1.07;;;;;;;;;;4948612;28;20218;-86
2023/03/06 03:07:51;;;;;;;1.83;1.00;;;;;;;;;;4962011;28;20214;-85
2023/03/06 03:10:20;;;;;;;1.47;1.20;;;;;;;;;;4955348;28;20226;-87
2023/03/06 03:12:49;;;;;;;1.20;1.10;;;;;;;;;;4941166;28;20233;-85
2023/03/06 03:15:18;;;;;;;1.10;1.10;;;;;;;;;;4939668;28;20305;-87
2023/03/06 03:17:46;;;;;;;1.97;1.17;;;;;;;;;;4941315;28;20743;-83
2023/03/06 03:20:13;;;;;;;0.90;0.90;;;;;;;;;;4956730;28;20218;-87
2023/03/06 03:22:39;;;;;;;1.43;1.00;;;;;;;;;;4936150;28;20223;-87
2023/03/06 03:25:05;;;;;;;1.20;1.07;;;;;;;;;;4929793;28;20361;-86
2023/03/06 03:27:31;;;;;;;1.03;1.03;;;;;;;;;;4943469;28;20254;-88
2023/03/06 03:29:57;;;;;;;2.27;1.50;;;;;;;;;;4944997;28;20300;-86
2023/03/06 03:32:23;;;;;;;2.13;1.80;;;;;;;;;;4956640;28;20236;-86
2023/03/06 03:34:58;;;;;;;1.70;1.20;;;;;;;;;;4944036;28;20233;-88
2023/03/06 03:37:26;;;;;;;2.00;1.90;;;;;;;;;;4920072;28;20308;-86
2023/03/06 03:39:56;;;;;;;2.50;2.33;;;;;;;;;;4963031;28;20221;-86
2023/03/06 03:42:22;;;;;;;2.57;2.40;;;;;;;;;;4956696;28;20256;-85
2023/03/06 03:44:50;;;;;;;1.70;1.60;;;;;;;;;;4930604;28;20281;-88
2023/03/06 03:47:18;;;;;;;1.60;1.50;;;;;;;;;;4921029;28;20218;-89
2023/03/06 03:49:46;;;;;;;1.73;1.40;;;;;;;;;;4951580;28;20677;-88
2023/03/06 03:52:16;;;;;;;1.57;1.47;;;;;;;;;;4934405;28;20218;-86
2023/03/06 03:54:41;;;;;;;2.30;1.83;;;;;;;;;;4924890;28;20222;-83
2023/03/06 03:57:07;;;;;;;2.33;2.17;;;;;;;;;;4955717;28;20226;-89
2023/03/06 03:59:43;;;;;;;2.33;2.13;;;;;;;;;;4950707;28;20229;-89
2023/03/06 04:02:31;;;;;;;2.03;1.87;;;;;;;;;;4951878;28;20222;-87
2023/03/06 04:05:06;;;;;;;2.30;2.10;;;;;;;;;;4948814;28;20233;-89
2023/03/06 04:07:34;;;;;;;3.60;2.53;;;;;;;;;;4957454;28;20225;-88
2023/03/06 04:10:00;;;;;;;2.63;2.03;;;;;;;;;;4935210;28;20222;-90
2023/03/06 04:12:29;;;;;;;6.03;4.70;;;;;;;;;;4958023;28;20229;-90
2023/03/06 04:14:55;;;;;;;12.30;8.57;;;;;;;;;;4925563;28;20595;-90
2023/03/06 04:17:26;;;;;;;10.90;7.37;;;;;;;;;;4951329;28;20222;-89
2023/03/06 04:19:53;;;;;;;5.97;5.10;;;;;;;;;;4939402;28;20596;-89
2023/03/06 04:22:19;;;;;;;3.80;3.40;;;;;;;;;;4922155;28;20206;-87
2023/03/06 04:24:48;;;;;;;3.50;2.87;;;;;;;;;;4951473;28;20222;-87
2023/03/06 04:27:21;;;;;;;2.60;2.40;;;;;;;;;;4932991;28;20287;-85
2023/03/06 04:29:47;;;;;;;3.37;1.97;;;;;;;;;;4934358;28;20233;-85
2023/03/06 04:32:16;;;;;;;2.17;1.77;;;;;;;;;;4934747;28;21190;-84
2023/03/06 04:34:46;;;;;;;2.57;1.43;;;;;;;;;;4941585;28;20237;-86
2023/03/06 04:37:19;;;;;;;1.80;1.70;;;;;;;;;;4933107;28;20254;-85
2023/03/06 04:39:47;;;;;;;1.50;1.40;;;;;;;;;;4951502;28;20238;-87
2023/03/06 04:42:13;;;;;;;1.60;1.50;;;;;;;;;;4948029;28;20685;-88
2023/03/06 04:44:41;;;;;;;2.60;1.80;;;;;;;;;;4936645;28;20322;-82
2023/03/06 04:47:09;;;;;;;1.50;1.40;;;;;;;;;;4962625;28;20710;-82
2023/03/06 04:49:35;;;;;;;3.53;2.80;;;;;;;;;;4950111;28;20233;-82
2023/03/06 04:52:01;;;;;;;2.40;2.07;;;;;;;;;;4950450;28;20258;-81
2023/03/06 04:54:26;;;;;;;7.57;4.70;;;;;;;;;;4933146;28;20249;-81
2023/03/06 04:56:52;;;;;;;7.33;3.57;;;;;;;;;;4957765;28;20241;-81
2023/03/06 04:59:20;;;;;;;7.00;4.73;;;;;;;;;;4954916;28;20226;-81
2023/03/06 05:01:45;;;;;;;26.37;12.27;;;;;;;;;;4954545;28;20511;-81
2023/03/06 05:04:11;;;;;;;53.50;22.47;;;;;;;;;;4945365;28;20255;-82
2023/03/06 05:06:37;;;;;;;95.37;40.53;;;;;;;;;;4951272;28;20701;-81
2023/03/06 05:09:02;;;;;;;36.13;22.00;;;;;;;;;;4954426;28;20615;-82
2023/03/06 05:11:28;;;;;;;9.87;5.47;;;;;;;;;;4934516;28;20237;-81
2023/03/06 05:13:53;;;;;;;3.57;2.43;;;;;;;;;;4969435;28;20222;-81
2023/03/06 05:16:19;;;;;;;1.90;1.77;;;;;;;;;;4913480;28;20250;-80
2023/03/06 05:18:45;;;;;;;2.23;2.03;;;;;;;;;;4937322;28;20226;-81
2023/03/06 05:21:10;;;;;;;2.27;2.07;;;;;;;;;;4927197;28;20224;-81
2023/03/06 05:23:38;;;;;;;5.20;1.77;;;;;;;;;;4937984;28;20230;-81
2023/03/06 05:26:06;;;;;;;1.60;1.50;;;;;;;;;;4931950;28;20222;-81
2023/03/06 05:28:31;;;;;;;1.60;1.50;;;;;;;;;;4940544;28;20602;-81
2023/03/06 05:30:57;;;;;;;1.70;1.60;;;;;;;;;;4932396;28;20255;-80
2023/03/06 05:33:22;;;;;;;1.70;1.23;;;;;;;;;;4935746;28;20280;-80
2023/03/06 05:35:48;;;;;;;4.17;1.93;;;;;;;;;;4966861;28;20237;-81
2023/03/06 05:38:14;;;;;;;3.17;2.17;;;;;;;;;;4935467;28;20221;-80
2023/03/06 05:40:42;;;;;;;2.30;2.10;;;;;;;;;;4946692;28;20233;-80
2023/03/06 05:43:09;;;;;;;3.57;2.10;;;;;;;;;;4944387;28;20230;-81
2023/03/06 05:45:34;;;;;;;2.63;2.23;;;;;;;;;;4967174;28;20761;-81
2023/03/06 05:48:00;;;;;;;2.47;2.00;;;;;;;;;;4936810;28;20225;-81
2023/03/06 05:50:26;;;;;;;2.30;2.17;;;;;;;;;;4947292;28;20226;-81
2023/03/06 05:52:51;;;;;;;2.53;2.33;;;;;;;;;;4939831;28;20222;-79
2023/03/06 05:55:20;;;;;;;2.00;1.77;;;;;;;;;;4931888;28;20228;-79
2023/03/06 05:57:47;;;;;;;2.20;2.10;;;;;;;;;;4947725;28;20229;-79
2023/03/06 06:00:15;;;;;;;3.37;2.17;;;;;;;;;;4944792;28;20317;-80
2023/03/06 06:02:43;;;;;;;2.73;2.53;;;;;;;;;;4945607;28;20864;-80
2023/03/06 06:05:11;;;;;;;4.57;4.17;;;;;;;;;;4944629;28;20226;-79
2023/03/06 06:07:37;;;;;;;4.53;3.93;;;;;;;;;;4947281;28;20226;-81
2023/03/06 06:10:03;;;;;;;3.30;3.00;;;;;;;;;;4936650;28;20238;-80
2023/03/06 06:12:29;;;;;;;2.87;2.67;;;;;;;;;;4932527;28;20223;-81
2023/03/06 06:14:57;;;;;;;3.17;2.27;;;;;;;;;;4946982;28;20222;-80
2023/03/06 06:17:22;;;;;;;2.60;2.40;;;;;;;;;;4964844;28;20639;-79
2023/03/06 06:19:53;;;;;;;2.57;2.37;;;;;;;;;;4938295;28;20218;-80
2023/03/06 06:22:19;;;;;;;2.50;2.07;;;;;;;;;;4930245;28;20268;-80
2023/03/06 06:24:47;;;;;;;2.57;2.37;;;;;;;;;;4946709;28;20321;-78
2023/03/06 06:27:12;;;;;;;2.63;2.43;;;;;;;;;;4946191;28;20277;-80
2023/03/06 06:29:42;;;;;;;2.20;2.10;;;;;;;;;;4946982;28;20679;-80
2023/03/06 06:32:10;;;;;;;2.43;2.03;;;;;;;;;;4947040;28;20222;-79
2023/03/06 06:34:36;;;;;;;3.23;2.10;;;;;;;;;;4941122;28;20231;-81
2023/03/06 06:37:01;;;;;;;1.83;1.73;;;;;;;;;;4952587;28;20226;-79
2023/03/06 06:39:29;;;;;;;1.63;1.53;;;;;;;;;;4928513;28;20227;-80
2023/03/06 06:41:57;;;;;;;2.77;2.53;;;;;;;;;;4952979;28;20652;-80
2023/03/06 06:44:22;;;;;;;4.13;2.20;;;;;;;;;;4909905;28;20313;-79
2023/03/06 06:46:49;;;;;;;2.13;2.03;;;;;;;;;;4946767;28;20224;-83
2023/03/06 06:49:15;;;;;;;2.43;2.20;;;;;;;;;;4946332;28;20262;-83
2023/03/06 06:51:40;;;;;;;2.40;2.30;;;;;;;;;;4936948;28;20235;-81
2023/03/06 06:54:06;;;;;;;3.57;2.23;;;;;;;;;;4937842;28;20261;-81
2023/03/06 06:56:31;;;;;;;2.63;2.07;;;;;;;;;;4951700;28;20233;-82
2023/03/06 06:59:00;;;;;;;2.43;2.23;;;;;;;;;;4929365;28;20797;-81
2023/03/06 07:01:26;;;;;;;3.10;2.37;;;;;;;;;;4912046;28;20230;-83
2023/03/06 07:03:52;;;;;;;2.50;2.30;;;;;;;;;;4951524;28;20218;-83
2023/03/06 07:06:17;;;;;;;2.93;2.73;;;;;;;;;;4921027;28;20229;-83
2023/03/06 07:08:43;;;;;;;2.43;2.23;;;;;;;;;;4935001;28;20234;-83
2023/03/06 07:11:10;;;;;;;2.17;1.97;;;;;;;;;;4941163;28;20238;-83
2023/03/06 07:13:38;;;;;;;2.57;2.20;;;;;;;;;;4934079;28;20331;-82
2023/03/06 07:16:04;;;;;;;2.57;2.37;;;;;;;;;;4939193;28;20293;-80
2023/03/06 07:18:35;;;;;;;3.97;3.67;;;;;;;;;;4933788;28;20230;-81
2023/03/06 07:21:01;;;;;;;3.93;2.77;;;;;;;;;;4930964;28;20222;-81
2023/03/06 07:23:29;;;;;;;2.30;2.10;;;;;;;;;;4941782;28;20607;-81
2023/03/06 07:25:54;;;;;;;3.30;2.30;;;;;;;;;;4919837;28;20233;-81
2023/03/06 07:28:20;;;;;;;2.23;2.03;;;;;;;;;;4955976;28;20225;-80
2023/03/06 07:30:48;;;;;;;4.20;3.80;;;;;;;;;;4947179;28;20237;-81
2023/03/06 07:33:14;;;;;;;5.57;5.17;;;;;;;;;;4950618;28;20226;-80
2023/03/06 07:35:42;;;;;;;4.20;3.90;;;;;;;;;;4972193;28;20237;-82
2023/03/06 07:38:10;;;;;;;3.17;2.90;;;;;;;;;;4947360;28;20268;-80
2023/03/06 07:40:37;;;;;;;2.03;1.93;;;;;;;;;;4957622;28;20218;-80
2023/03/06 07:43:03;;;;;;;4.50;3.40;;;;;;;;;;4942035;28;20266;-79
2023/03/06 07:45:35;;;;;;;2.30;2.10;;;;;;;;;;4957768;28;20230;-81
2023/03/06 07:48:00;;;;;;;3.73;3.13;;;;;;;;;;4933577;28;20282;-81
2023/03/06 07:50:28;;;;;;;2.87;2.67;;;;;;;;;;4916605;28;20253;-84
2023/03/06 07:52:54;;;;;;;2.57;2.40;;;;;;;;;;4942018;28;20314;-82
2023/03/06 07:55:21;;;;;;;2.73;2.47;;;;;;;;;;4940629;28;20341;-83
2023/03/06 07:57:49;;;;;;;2.80;2.60;;;;;;;;;;4954607;28;20640;-81
2023/03/06 08:00:19;;;;;;;2.23;2.10;;;;;;;;;;4945078;28;20500;-83
2023/03/06 08:02:48;;;;;;;2.03;1.83;;;;;;;;;;4954355;28;20230;-82
2023/03/06 08:05:18;;;;;;;2.00;1.80;;;;;;;;;;4937568;28;20242;-84
2023/03/06 08:07:44;;;;;;;3.70;2.80;;;;;;;;;;4942245;28;20758;-83
2023/03/06 08:10:13;;;;;;;10.93;9.83;;;;;;;;;;4938828;28;20222;-81
2023/03/06 08:12:39;;;;;;;4.77;4.37;;;;;;;;;;4956037;28;20248;-80
2023/03/06 08:15:05;;;;;;;3.33;3.07;;;;;;;;;;4936079;28;21158;-81
2023/03/06 08:17:30;;;;;;;4.30;4.00;;;;;;;;;;4936289;28;20847;-80
2023/03/06 08:19:56;;;;;;;3.40;3.20;;;;;;;;;;4946775;28;20230;-80
2023/03/06 08:22:22;;;;;;;3.20;2.10;;;;;;;;;;4964147;28;20218;-80
2023/03/06 08:24:53;;;;;;;2.80;2.47;;;;;;;;;;4952032;28;20226;-79
2023/03/06 08:27:19;;;;;;;2.63;2.30;;;;;;;;;;4928782;28;20308;-80
2023/03/06 08:29:44;;;;;;;6.27;5.07;;;;;;;;;;4935747;28;20219;-79
2023/03/06 08:32:12;;;;;;;2.70;2.50;;;;;;;;;;4936379;28;20221;-80
2023/03/06 08:34:38;;;;;;;3.20;2.00;;;;;;;;;;4941831;28;20767;-81
2023/03/06 08:37:04;;;;;;;2.07;1.87;;;;;;;;;;4950081;28;20812;-80
2023/03/06 08:39:32;;;;;;;2.47;2.00;;;;;;;;;;4936829;28;20252;-80
2023/03/06 08:41:57;;;;;;;2.10;1.90;;;;;;;;;;4951686;28;20226;-79
2023/03/06 08:44:23;;;;;;;2.30;2.10;;;;;;;;;;4932547;28;21094;-78
2023/03/06 08:46:48;;;;;;;3.33;2.80;;;;;;;;;;4934129;28;20222;-81
2023/03/06 08:49:14;;;;;;;3.10;2.90;;;;;;;;;;4926517;28;20249;-81
2023/03/06 08:51:39;;;;;;;3.00;2.70;;;;;;;;;;4929307;28;20222;-81
2023/03/06 08:54:07;;;;;;;2.30;2.10;;;;;;;;;;4945391;28;20261;-83
2023/03/06 08:56:33;;;;;;;1.93;1.83;;;;;;;;;;4951015;28;20218;-83
2023/03/06 08:59:03;;;;;;;2.10;1.90;;;;;;;;;;4952425;28;20218;-82
2023/03/06 09:01:35;;;;;;;5.03;1.90;;;;;;;;;;4938112;28;20226;-83
2023/03/06 09:04:04;;;;;;;3.27;2.40;;;;;;;;;;4953536;28;20254;-82
2023/03/06 09:06:32;;;;;;;3.10;1.80;;;;;;;;;;4920559;28;20254;-82
2023/03/06 09:08:59;;;;;;;2.00;1.80;;;;;;;;;;4936832;28;20301;-82
2023/03/06 09:11:25;;;;;;;2.43;1.90;;;;;;;;;;4930596;28;20233;-81
2023/03/06 09:13:53;;;;;;;3.13;2.00;;;;;;;;;;4939072;28;20247;-82
2023/03/06 09:16:20;;;;;;;3.40;2.03;;;;;;;;;;4935983;28;20255;-82
2023/03/06 09:18:48;;;;;;;2.17;1.97;;;;;;;;;;4948293;28;20297;-81
2023/03/06 09:21:19;;;;;;;3.43;2.40;;;;;;;;;;4931361;28;20222;-81
2023/03/06 09:23:45;;;;;;;2.23;2.03;;;;;;;;;;4929614;28;20223;-81
2023/03/06 09:26:11;;;;;;;2.33;2.13;;;;;;;;;;4941710;28;20593;-81
2023/03/06 09:28:37;;;;;;;2.23;2.03;;;;;;;;;;4940736;28;20233;-82
2023/03/06 09:31:18;;;;;;;2.67;2.20;;;;;;;;;;4948289;28;20235;-81
2023/03/06 09:33:43;;;;;;;3.10;2.70;;;;;;;;;;4919800;28;20290;-81
2023/03/06 09:36:15;;;;;;;2.30;2.10;;;;;;;;;;4947282;28;20226;-82
2023/03/06 09:38:41;;;;;;;2.47;2.13;;;;;;;;;;4967350;28;20437;-84
2023/03/06 09:41:07;;;;;;;2.67;2.00;;;;;;;;;;4947582;28;20237;-81
2023/03/06 09:43:45;;;;;;;2.87;2.60;;;;;;;;;;4974560;28;20283;-83
2023/03/06 09:46:35;;;;;;;3.03;2.83;;;;;;;;;;4961830;28;20234;-80
2023/03/06 09:49:20;;;;;;;3.57;2.87;;;;;;;;;;4968764;28;20222;-83
2023/03/06 09:52:42;;;;;;;3.47;2.87;;;;;;;;;;4971419;28;20237;-81
2023/03/06 09:55:23;;;;;;;2.90;2.63;;;;;;;;;;4937795;28;20234;-80
2023/03/06 09:57:56;;;;;;;2.47;2.27;;;;;;;;;;4963301;28;20225;-79
2023/03/06 10:00:32;;;;;;;2.57;2.37;;;;;;;;;;4971528;28;20233;-82
2023/03/06 10:03:22;;;;;;;6.50;2.37;;;;;;;;;;4973017;28;20225;-82
2023/03/06 10:05:51;;;;;;;2.60;2.40;;;;;;;;;;4969769;28;20223;-81
2023/03/06 10:08:45;;;;;;;2.80;2.60;;;;;;;;;;4939094;28;20233;-80
2023/03/06 10:11:12;;;;;;;3.43;2.83;;;;;;;;;;4959048;28;20241;-82
2023/03/06 10:13:52;;;;;;;3.43;2.57;;;;;;;;;;4960516;28;20326;-82
2023/03/06 10:16:28;;;;;;;2.80;2.60;;;;;;;;;;4946055;28;20218;-80
2023/03/06 10:19:09;;;;;;;2.50;2.30;;;;;;;;;;4957130;28;20223;-82
2023/03/06 10:21:58;;;;;;;2.60;2.40;;;;;;;;;;4953617;28;20305;-83
2023/03/06 10:24:46;;;;;;;2.77;2.27;;;;;;;;;;4967638;28;20238;-82
2023/03/06 10:27:20;;;;;;;4.00;2.60;;;;;;;;;;4976674;28;20245;-81
2023/03/06 10:30:10;;;;;;;2.67;2.10;;;;;;;;;;4974683;28;20230;-81
2023/03/06 10:33:00;;;;;;;2.10;2.00;;;;;;;;;;4971597;28;20249;-82
2023/03/06 10:35:53;;;;;;;2.63;2.30;;;;;;;;;;4944274;28;20223;-81
2023/03/06 10:38:28;;;;;;;2.97;2.30;;;;;;;;;;4952407;28;20229;-81
2023/03/06 10:41:10;;;;;;;2.50;2.30;;;;;;;;;;4942355;28;20228;-80
2023/03/06 10:43:58;;;;;;;3.17;2.30;;;;;;;;;;4952010;28;20229;-80
2023/03/06 10:46:36;;;;;;;2.67;2.37;;;;;;;;;;4972338;28;20330;-80
2023/03/06 10:49:22;;;;;;;2.97;2.57;;;;;;;;;;4960963;28;20235;-80
2023/03/06 10:52:14;;;;;;;2.60;2.40;;;;;;;;;;4968919;28;20222;-79
2023/03/06 10:54:41;;;;;;;2.57;2.37;;;;;;;;;;4958561;28;20262;-80
2023/03/06 10:57:26;;;;;;;2.90;2.60;;;;;;;;;;4942424;28;20459;-78
2023/03/06 10:59:56;;;;;;;4.60;2.67;;;;;;;;;;4972439;28;20972;-81
2023/03/06 11:02:29;;;;;;;3.47;2.83;;;;;;;;;;4966409;28;20232;-80
2023/03/06 11:04:55;;;;;;;4.10;2.60;;;;;;;;;;4965928;28;20793;-81
2023/03/06 11:07:30;;;;;;;2.27;2.07;;;;;;;;;;4951622;28;20738;-81
2023/03/06 11:09:56;;;;;;;2.93;2.73;;;;;;;;;;4947927;28;20219;-79
2023/03/06 11:12:36;;;;;;;2.20;2.00;;;;;;;;;;4962891;28;20607;-82
2023/03/06 11:15:16;;;;;;;3.07;2.40;;;;;;;;;;4972229;28;20222;-80
2023/03/06 11:17:52;;;;;;;3.23;2.50;;;;;;;;;;4964921;28;20310;-79
2023/03/06 11:20:46;;;;;;;2.83;2.50;;;;;;;;;;4956024;28;20237;-78
2023/03/06 11:23:17;;;;;;;2.53;2.33;;;;;;;;;;4965881;28;20225;-79
2023/03/06 11:26:16;;;;;;;4.13;2.80;;;;;;;;;;4949017;28;20222;-81
2023/03/06 11:29:00;;;;;;;2.97;2.67;;;;;;;;;;4950022;28;20234;-81
2023/03/06 11:31:28;;;;;;;2.83;2.63;;;;;;;;;;4972763;28;20261;-78
2023/03/06 11:34:00;;;;;;;2.90;2.60;;;;;;;;;;4955434;28;20282;-81
2023/03/06 11:36:29;;;;;;;3.63;2.47;;;;;;;;;;4963990;28;20229;-79
2023/03/06 11:38:57;;;;;;;4.20;2.67;;;;;;;;;;4966065;28;20946;-79
2023/03/06 11:42:00;;;;;;;3.30;3.00;;;;;;;;;;4939533;28;20222;-81
2023/03/06 11:44:44;;;;;;;2.63;2.43;;;;;;;;;;4948371;28;20349;-78
2023/03/06 11:47:26;;;;;;;4.20;2.60;;;;;;;;;;4966874;28;20276;-80
2023/03/06 11:50:13;;;;;;;2.73;2.10;;;;;;;;;;4965691;28;20317;-78
2023/03/06 11:52:45;;;;;;;3.83;3.40;;;;;;;;;;4967474;28;20226;-81
2023/03/06 11:55:13;;;;;;;4.27;2.33;;;;;;;;;;4948273;28;20285;-81
2023/03/06 11:57:48;;;;;;;2.30;2.10;;;;;;;;;;4946814;28;20286;-81
2023/03/06 12:00:45;;;;;;;2.20;2.00;;;;;;;;;;4965395;28;20218;-81
2023/03/06 12:03:26;;;;;;;2.30;2.00;;;;;;;;;;4962335;28;21092;-79
2023/03/06 12:06:01;;;;;;;2.10;1.90;;;;;;;;;;4966755;28;20285;-79
2023/03/06 12:08:47;;;;;;;2.43;2.03;;;;;;;;;;4946958;28;20277;-80
2023/03/06 12:11:21;;;;;;;2.97;2.30;;;;;;;;;;4944096;28;20230;-80
2023/03/06 12:14:18;;;;;;;3.80;2.40;;;;;;;;;;4941821;28;20718;-78
2023/03/06 12:17:08;;;;;;;4.43;2.60;;;;;;;;;;4955888;28;20226;-80
2023/03/06 12:19:48;;;;;;;3.87;1.90;;;;;;;;;;4951610;28;20289;-80
2023/03/06 12:22:34;;;;;;;3.33;3.00;;;;;;;;;;4965730;28;20241;-80
2023/03/06 12:25:05;;;;;;;4.37;3.97;;;;;;;;;;4967115;28;20222;-79
2023/03/06 12:27:46;;;;;;;28.57;17.37;;;;;;;;;;4964405;28;20293;-80
2023/03/06 12:30:14;;;;;;;3.13;2.33;;;;;;;;;;4955881;28;20231;-81
2023/03/06 12:33:07;;;;;;;11.47;8.10;;;;;;;;;;4964329;28;20230;-79
2023/03/06 12:35:57;;;;;;;10.70;8.37;;;;;;;;;;4963140;28;20226;-80
2023/03/06 12:38:46;;;;;;;4.23;3.40;;;;;;;;;;4952068;28;20233;-80
2023/03/06 12:41:26;;;;;;;2.63;2.37;;;;;;;;;;4965221;28;20226;-81
2023/03/06 12:43:58;;;;;;;1.87;1.67;;;;;;;;;;4950768;28;20601;-80
2023/03/06 12:46:24;;;;;;;4.87;2.50;;;;;;;;;;4967515;28;20754;-82
2023/03/06 12:49:04;;;;;;;3.23;1.90;;;;;;;;;;4930385;28;20735;-80
2023/03/06 12:51:30;;;;;;;2.03;1.83;;;;;;;;;;4962091;28;20248;-80
2023/03/06 12:53:56;;;;;;;2.70;1.90;;;;;;;;;;4936439;28;20242;-81
2023/03/06 12:56:21;;;;;;;1.97;1.73;;;;;;;;;;4963077;28;20277;-80
2023/03/06 12:58:52;;;;;;;1.97;1.60;;;;;;;;;;4920062;28;20223;-79
2023/03/06 13:01:38;;;;;;;2.80;2.10;;;;;;;;;;4931177;28;20233;-81
2023/03/06 13:04:40;;;;;;;1.73;1.63;;;;;;;;;;4945432;28;20266;-78
2023/03/06 13:07:26;;;;;;;2.27;1.40;;;;;;;;;;4958727;28;20305;-81
2023/03/06 13:10:06;;;;;;;2.70;2.20;;;;;;;;;;4960463;28;20229;-81
2023/03/06 13:12:49;;;;;;;2.23;1.20;;;;;;;;;;4972125;28;20241;-80
2023/03/06 13:15:26;;;;;;;3.07;2.33;;;;;;;;;;4962294;28;20260;-83
2023/03/06 13:17:52;;;;;;;2.77;1.87;;;;;;;;;;4963490;28;20310;-81
2023/03/06 13:20:56;;;;;;;2.03;1.93;;;;;;;;;;4948776;28;20219;-82
2023/03/06 13:23:39;;;;;;;4.37;2.03;;;;;;;;;;4962768;28;20246;-80
2023/03/06 13:26:30;;;;;;;2.97;1.50;;;;;;;;;;4952431;28;20226;-82
2023/03/06 13:28:56;;;;;;;1.87;1.57;;;;;;;;;;4964290;28;20230;-81
2023/03/06 13:31:28;;;;;;;1.97;1.77;;;;;;;;;;4940475;28;20253;-80
2023/03/06 13:33:59;;;;;;;2.80;1.50;;;;;;;;;;4970508;28;20253;-82
2023/03/06 13:36:26;;;;;;;2.40;1.57;;;;;;;;;;4961669;28;20229;-81
2023/03/06 13:38:51;;;;;;;1.77;1.43;;;;;;;;;;4942359;28;20225;-82
2023/03/06 13:41:28;;;;;;;1.93;1.30;;;;;;;;;;4964847;28;20226;-81
2023/03/06 13:43:55;;;;;;;1.77;1.20;;;;;;;;;;4944469;28;20301;-82
2023/03/06 13:46:24;;;;;;;2.17;1.40;;;;;;;;;;4953179;28;20232;-81
2023/03/06 13:49:19;;;;;;;2.37;1.30;;;;;;;;;;4964913;28;20302;-82
2023/03/06 13:51:51;;;;;;;1.57;1.37;;;;;;;;;;4945329;28;20234;-79
2023/03/06 13:54:54;;;;;;;2.43;1.90;;;;;;;;;;4977676;28;20218;-80
2023/03/06 13:58:06;;;;;;;3.90;2.57;;;;;;;;;;4977780;28;20232;-79
2023/03/06 14:00:51;;;;;;;2.73;2.00;;;;;;;;;;4962505;28;20233;-81
2023/03/06 14:03:39;;;;;;;3.37;2.23;;;;;;;;;;4955411;28;20250;-80
2023/03/06 14:06:36;;;;;;;1.67;1.57;;;;;;;;;;4977000;28;20230;-82
2023/03/06 14:09:12;;;;;;;3.33;2.37;;;;;;;;;;4975077;28;20237;-81
2023/03/06 14:11:37;;;;;;;5.37;1.70;;;;;;;;;;4935673;28;20231;-81
2023/03/06 14:14:03;;;;;;;3.80;1.47;;;;;;;;;;4928095;28;20233;-81
2023/03/06 14:16:32;;;;;;;1.47;1.30;;;;;;;;;;4919643;28;20234;-81
2023/03/06 14:18:58;;;;;;;3.00;1.50;;;;;;;;;;4937579;28;20221;-81
2023/03/06 14:21:30;;;;;;;1.97;1.67;;;;;;;;;;4939738;28;20265;-80
2023/03/06 14:24:02;;;;;;;4.07;1.70;;;;;;;;;;4963358;28;20317;-81
2023/03/06 14:26:34;;;;;;;2.73;1.70;;;;;;;;;;4955095;28;20296;-80
2023/03/06 14:29:01;;;;;;;2.00;1.73;;;;;;;;;;4951979;28;20222;-82
2023/03/06 14:31:31;;;;;;;3.07;1.33;;;;;;;;;;4931383;28;20223;-81
2023/03/06 14:34:04;;;;;;;1.70;1.60;;;;;;;;;;4960012;28;20220;-81
2023/03/06 14:36:53;;;;;;;1.50;1.20;;;;;;;;;;4939041;28;20234;-81
2023/03/06 14:39:37;;;;;;;2.43;1.57;;;;;;;;;;4956895;28;20221;-81
2023/03/06 14:42:25;;;;;;;2.70;1.40;;;;;;;;;;4947814;28;20653;-79
2023/03/06 14:45:05;;;;;;;2.03;1.33;;;;;;;;;;4970566;28;20222;-80
2023/03/06 14:47:33;;;;;;;2.17;1.80;;;;;;;;;;4950687;28;20248;-79
2023/03/06 14:50:18;;;;;;;3.80;1.50;;;;;;;;;;4951306;28;20265;-80
2023/03/06 14:52:46;;;;;;;3.30;2.07;;;;;;;;;;4964438;28;20317;-81
2023/03/06 14:55:18;;;;;;;2.70;1.87;;;;;;;;;;4938287;28;20600;-81
2023/03/06 14:57:49;;;;;;;2.53;1.83;;;;;;;;;;4955585;28;20222;-80
2023/03/06 15:00:18;;;;;;;2.10;1.90;;;;;;;;;;4960316;28;20227;-81
2023/03/06 15:02:43;;;;;;;2.40;2.20;;;;;;;;;;4933273;28;20594;-82
2023/03/06 15:05:27;;;;;;;2.10;1.50;;;;;;;;;;4951795;28;20258;-81
2023/03/06 15:07:55;;;;;;;1.70;1.47;;;;;;;;;;4938746;28;20365;-81